Airfield :
LOGIN :

Register | Disclaimer

   EN    FR    IT 

 










Legend :    VFR   Marginal VFR   IFR   Intensive IFR   Very Intensive IFR
Visi :
Ceiling :
>= 8 km
>= 3000ft
5 to 8 km
1000 to 3000 ft
1500m to 5 km
500 to 1000 ft
800 to 1500m
200 to 500 ft
< 800m
< 200 ft
Symbols :   Thunderstorms  Fog  Heavy snow  Heavy precipitations  Wind > 20 kt
SIGMETs :     Misc.  Thunderstorms  Icing  Turbulence  Mountain Waves  Volcanic Ashes







- Airport Elevation : 2096 ft
- IATA code : AUR
- Download approach charts


LFLW - Aurillac

CURRENT METAR :
  • 231630Z AUTO 31006KT 280V340 9999 FEW008 21/12 Q1020 NOSIG

EXPIRED METARs :
  • 231600Z AUTO 32006KT 280V360 9999 SCT040 20/11 Q1020 NOSIG
  • 231530Z AUTO 28006KT 250V320 9999 BKN042 20/11 Q1021 NOSIG
  • 231500Z AUTO 30006KT 270V330 9999 BKN041 20/12 Q1021 NOSIG
  • 231430Z AUTO 28006KT 230V330 9999 SCT039 BKN046 21/12 Q1021 NOSIG
  • 231400Z AUTO 30005KT 260V340 9999 BKN038 OVC044 19/11 Q1021 NOSIG

TAF TAF LFLW
Valid from the 23 at 15:00 until the 24 at 00:00 UTC


231400Z 2315/2324 30005KT 9999 BKN035 BKN045
PROB30
TEMPO 2321/2324 RA SCT030TCU
No reported NOTAMs for that airfield.
1 SIGMET reported for the Bordeaux FIR (LFBB) :
 
Embedded thunderstorms
LFBB SIGMET 1 VALID 231600/231800 LFPW
LFBB BORDEAUX FIR/UIR EMBD TS OBS WI N4245 E00230 - N4215 E00230 - N4230 E00030 - N4300 E00100 TOP FL360 MOV NE 20KT NC=



MET'MAP, your aeronautical weather chart ! - Copyright ORBIFLY December 2007 - Disclaimer

ORBIFLY MET'MAP TEAM :

Programming & Development : Alexandra Zaïnal
Concept & Development : Baudouin d'Aumeries
Co-Development & Prog : Marc-Olivier Méhu
Technical & hardware support : Manuel Goepfert

Contact : metmap@orbifly.com




SOURCES & CREDITS :

   NOAA